Time;durP1;ratioP1;P1;durP2;ratioP2;P2;SDS_P1;SDS_P2;PMS_P1;PMS_P2;Temp;Humidity;BMP_temperature;BMP_pressure;BME280_temperature;BME280_humidity;BME280_pressure;Samples;Min_cycle;Max_cycle;Signal;HPM_P1;HPM_P2
2021/07/28 00:02:40;;;;;;;9.43;5.20;;;18.40;99.90;18.20;96667.00;;;;5046624;28;20211;-73
2021/07/28 00:05:29;;;;;;;6.23;4.43;;;18.40;99.90;18.40;96668.00;;;;5045511;28;20205;-73
2021/07/28 00:08:20;;;;;;;10.67;4.70;;;18.50;99.90;18.50;96673.00;;;;5045415;28;20235;-74
2021/07/28 00:11:12;;;;;;;9.90;4.77;;;18.50;99.90;18.60;96676.00;;;;5042238;28;20197;-74
2021/07/28 00:14:01;;;;;;;9.47;5.37;;;18.60;99.90;18.50;96677.00;;;;5035062;28;20205;-73
2021/07/28 00:16:51;;;;;;;7.97;4.60;;;18.70;99.90;18.50;96677.00;;;;5041831;28;20344;-73
2021/07/28 00:19:51;;;;;;;14.50;4.17;;;18.70;99.90;18.60;96667.00;;;;5042080;28;20224;-73
2021/07/28 00:25:58;;;;;;;11.07;4.57;;;18.70;99.90;18.60;96671.00;;;;5024438;28;20197;-73
2021/07/28 00:28:46;;;;;;;11.43;5.37;;;18.70;99.90;18.60;96668.00;;;;5047350;28;20228;-73
2021/07/28 00:31:35;;;;;;;9.20;4.57;;;18.80;99.90;18.60;96678.00;;;;5047778;28;20204;-73
2021/07/28 00:34:24;;;;;;;11.17;4.37;;;18.80;99.90;18.60;96673.00;;;;5046863;28;20223;-73
2021/07/28 00:37:15;;;;;;;8.20;5.03;;;18.80;99.90;18.60;96672.00;;;;5046822;28;20224;-73
2021/07/28 00:40:05;;;;;;;9.80;5.57;;;18.80;99.90;18.60;96683.00;;;;5036704;28;20192;-73
2021/07/28 00:43:10;;;;;;;9.17;3.73;;;18.80;99.90;18.40;96673.00;;;;5046750;28;20205;-73
2021/07/28 00:45:58;;;;;;;8.87;5.13;;;18.80;99.90;18.50;96669.00;;;;5034506;28;20210;-73
2021/07/28 00:48:47;;;;;;;6.07;4.17;;;18.80;99.90;18.60;96661.00;;;;5044827;28;20231;-73
2021/07/28 00:51:36;;;;;;;11.13;5.90;;;18.80;99.90;18.60;96667.00;;;;5035956;28;20204;-73
2021/07/28 00:54:26;;;;;;;11.50;3.70;;;18.80;99.90;18.60;96662.00;;;;5041953;28;20205;-73
2021/07/28 00:57:15;;;;;;;7.57;3.73;;;18.80;99.90;18.60;96663.00;;;;5037268;28;20243;-73
2021/07/28 01:00:05;;;;;;;7.63;3.40;;;18.80;99.90;18.60;96656.00;;;;5051257;28;20224;-73
2021/07/28 01:02:54;;;;;;;9.10;3.77;;;18.80;99.90;18.60;96665.00;;;;5051549;28;20207;-73
2021/07/28 01:05:43;;;;;;;5.13;3.37;;;18.80;99.90;18.50;96661.00;;;;5042968;28;20583;-73
2021/07/28 01:08:33;;;;;;;5.63;3.83;;;18.80;99.90;18.50;96659.00;;;;5046559;28;20224;-73
2021/07/28 01:11:27;;;;;;;6.57;3.47;;;17.00;99.90;18.60;96652.00;;;;5049106;28;20599;-72
2021/07/28 01:14:17;;;;;;;7.17;4.13;;;18.80;99.90;18.40;96652.00;;;;5048820;28;20205;-73
2021/07/28 01:17:07;;;;;;;10.27;4.13;;;18.80;99.90;18.30;96657.00;;;;5036654;28;20216;-73
2021/07/28 01:20:06;;;;;;;9.87;4.40;;;18.70;99.90;18.40;96658.00;;;;5049092;28;20234;-73
2021/07/28 01:22:57;;;;;;;6.50;3.27;;;18.70;99.90;18.20;96655.00;;;;5045596;28;20200;-73
2021/07/28 01:25:47;;;;;;;8.43;4.37;;;18.60;99.90;18.30;96649.00;;;;5037522;28;20611;-73
2021/07/28 01:28:38;;;;;;;6.67;3.87;;;18.60;99.90;18.30;96654.00;;;;5038674;28;20299;-73
2021/07/28 01:31:26;;;;;;;6.63;3.10;;;18.60;99.90;18.20;96644.00;;;;5045517;28;20201;-74
2021/07/28 01:34:15;;;;;;;4.93;3.60;;;18.50;99.90;18.00;96638.00;;;;5044321;28;20211;-72
2021/07/28 01:37:06;;;;;;;10.70;4.53;;;18.50;99.90;17.90;96643.00;;;;5036008;28;20237;-72
2021/07/28 01:39:55;;;;;;;9.43;4.57;;;18.40;99.90;18.00;96640.00;;;;5048094;28;20239;-72
2021/07/28 01:42:47;;;;;;;6.07;4.40;;;18.40;99.90;18.00;96642.00;;;;5047752;28;20193;-73
2021/07/28 01:45:37;;;;;;;8.17;4.23;;;18.30;99.90;18.00;96646.00;;;;5048725;28;20216;-74
2021/07/28 01:48:26;;;;;;;8.13;4.20;;;18.30;99.90;17.90;96642.00;;;;5048563;28;20224;-73
2021/07/28 01:51:15;;;;;;;5.90;4.10;;;18.30;99.90;17.70;96642.00;;;;5041691;28;20201;-74
2021/07/28 01:54:04;;;;;;;10.00;4.27;;;18.20;99.90;17.70;96632.00;;;;5046387;28;20550;-73
2021/07/28 01:56:54;;;;;;;5.73;3.70;;;18.10;99.90;17.70;96632.00;;;;5048734;28;20237;-74
2021/07/28 01:59:44;;;;;;;5.53;4.80;;;18.10;99.90;17.70;96632.00;;;;5048798;28;20232;-72
2021/07/28 02:02:34;;;;;;;5.60;3.63;;;18.00;99.90;17.80;96632.00;;;;5047822;28;20208;-74
2021/07/28 02:05:23;;;;;;;6.60;3.87;;;18.00;99.90;17.80;96628.00;;;;5048529;28;20205;-74
2021/07/28 02:08:14;;;;;;;7.60;3.30;;;18.10;99.90;17.80;96635.00;;;;5049052;28;20224;-74
2021/07/28 02:11:03;;;;;;;7.90;4.07;;;18.10;99.90;17.70;96622.00;;;;5047581;28;20243;-74
2021/07/28 02:13:52;;;;;;;7.00;3.73;;;18.10;99.90;17.70;96634.00;;;;5048272;28;20715;-72
2021/07/28 02:16:42;;;;;;;7.03;4.07;;;18.00;99.90;17.70;96629.00;;;;5050143;28;20213;-73
2021/07/28 02:19:31;;;;;;;5.77;4.00;;;18.00;99.90;17.70;96637.00;;;;5049754;28;20662;-73
2021/07/28 02:22:20;;;;;;;4.90;3.37;;;18.00;99.90;17.60;96631.00;;;;5049196;28;20207;-73
2021/07/28 02:25:10;;;;;;;6.23;3.33;;;17.10;99.90;17.50;96630.00;;;;5049758;28;20204;-73
2021/07/28 02:27:59;;;;;;;6.60;3.57;;;17.90;99.90;17.60;96635.00;;;;5049424;28;20608;-73
2021/07/28 02:30:48;;;;;;;4.37;3.47;;;17.90;99.90;17.30;96630.00;;;;5049319;28;20201;-74
2021/07/28 02:33:38;;;;;;;5.20;3.50;;;17.80;99.90;17.00;96631.00;;;;5049775;28;20215;-73
2021/07/28 02:36:27;;;;;;;6.97;3.30;;;17.70;99.90;17.20;96643.00;;;;5048503;28;20201;-73
2021/07/28 02:39:16;;;;;;;5.57;3.43;;;17.60;99.90;17.20;96636.00;;;;5049878;28;20227;-73
2021/07/28 02:42:05;;;;;;;6.70;3.87;;;17.60;99.90;17.20;96632.00;;;;5037200;28;20201;-73
2021/07/28 02:44:54;;;;;;;5.47;3.27;;;17.60;99.90;17.10;96632.00;;;;5037255;28;20215;-73
2021/07/28 02:47:42;;;;;;;7.80;4.27;;;17.50;99.90;17.10;96632.00;;;;5048773;28;20221;-73
2021/07/28 02:50:33;;;;;;;6.30;4.10;;;17.50;99.90;17.10;96632.00;;;;5048516;28;20223;-73
2021/07/28 02:53:23;;;;;;;5.93;3.73;;;17.50;99.90;17.10;96633.00;;;;5046988;28;20354;-74
2021/07/28 02:56:12;;;;;;;6.00;3.40;;;17.40;99.90;17.10;96633.00;;;;5036229;28;20216;-73
2021/07/28 02:59:00;;;;;;;6.80;3.50;;;17.40;99.90;17.00;96622.00;;;;5042979;28;20208;-74
2021/07/28 03:01:50;;;;;;;7.20;3.87;;;17.40;99.90;16.80;96632.00;;;;5045039;28;20200;-74
2021/07/28 03:04:38;;;;;;;7.37;4.03;;;17.40;99.90;16.90;96635.00;;;;5035868;28;20208;-74
2021/07/28 03:07:29;;;;;;;6.93;3.53;;;17.30;99.90;16.90;96633.00;;;;5046957;28;20236;-71
2021/07/28 03:10:18;;;;;;;8.40;3.60;;;17.30;99.90;16.90;96629.00;;;;5047831;28;20219;-73
2021/07/28 03:13:07;;;;;;;5.47;4.93;;;17.30;99.90;16.90;96643.00;;;;5046717;28;20545;-73
2021/07/28 03:15:55;;;;;;;4.97;3.40;;;17.30;99.90;17.00;96632.00;;;;5046947;28;20197;-73
2021/07/28 03:18:44;;;;;;;3.53;3.13;;;17.30;99.90;17.00;96635.00;;;;5036492;28;20225;-73
2021/07/28 03:21:34;;;;;;;14.93;7.63;;;17.30;99.90;17.10;96639.00;;;;5047210;28;20220;-74
2021/07/28 03:24:24;;;;;;;7.00;3.87;;;17.30;99.90;17.00;96626.00;;;;5046715;28;20680;-74
2021/07/28 03:27:13;;;;;;;6.83;5.03;;;17.30;99.90;16.70;96627.00;;;;5046598;28;20217;-73
2021/07/28 03:30:02;;;;;;;5.50;4.00;;;17.30;99.90;16.60;96625.00;;;;5047276;28;20675;-74
2021/07/28 03:32:51;;;;;;;7.10;3.83;;;17.20;99.90;16.70;96631.00;;;;5032629;28;20192;-73
2021/07/28 03:35:40;;;;;;;5.30;3.53;;;17.10;99.90;16.40;96634.00;;;;5045888;28;20208;-74
2021/07/28 03:38:28;;;;;;;7.53;3.43;;;17.10;99.90;16.30;96630.00;;;;5046201;28;20225;-73
2021/07/28 03:41:18;;;;;;;4.30;3.90;;;16.90;99.90;16.40;96626.00;;;;5046693;28;20239;-73
2021/07/28 03:44:08;;;;;;;5.30;3.73;;;16.80;99.90;16.50;96641.00;;;;5046992;28;20213;-73
2021/07/28 03:46:56;;;;;;;8.17;3.70;;;16.80;99.90;16.50;96631.00;;;;5046208;28;20238;-73
2021/07/28 03:49:45;;;;;;;6.97;3.23;;;16.80;99.90;16.50;96630.00;;;;5046682;28;20208;-72
2021/07/28 03:52:34;;;;;;;4.57;3.50;;;16.80;99.90;16.40;96635.00;;;;5045215;28;20224;-74
2021/07/28 03:55:23;;;;;;;4.90;2.90;;;16.80;99.90;16.40;96633.00;;;;5045400;28;20208;-74
2021/07/28 03:58:13;;;;;;;7.10;4.27;;;16.80;99.90;16.10;96634.00;;;;5046833;28;20227;-74
2021/07/28 04:01:02;;;;;;;7.33;3.97;;;16.70;99.90;15.90;96623.00;;;;5035859;28;20220;-74
2021/07/28 04:03:51;;;;;;;3.97;3.57;;;16.60;99.90;15.80;96634.00;;;;5045620;28;20209;-74
2021/07/28 04:06:40;;;;;;;5.70;4.40;;;16.50;99.90;15.80;96637.00;;;;5045603;28;20302;-73
2021/07/28 04:09:29;;;;;;;5.80;5.20;;;16.40;99.90;15.90;96628.00;;;;5046433;28;20747;-71
2021/07/28 04:12:18;;;;;;;4.63;3.03;;;16.30;99.90;16.10;96631.00;;;;5046336;28;20211;-73
2021/07/28 04:15:09;;;;;;;7.77;4.27;;;16.40;99.90;16.10;96632.00;;;;5032874;28;20204;-72
2021/07/28 04:17:58;;;;;;;7.90;3.20;;;16.40;99.90;16.30;96644.00;;;;5046300;28;20258;-73
2021/07/28 04:20:47;;;;;;;8.67;3.50;;;16.50;99.90;16.10;96630.00;;;;5046230;28;20228;-74
2021/07/28 04:23:36;;;;;;;5.57;3.40;;;16.50;99.90;16.20;96630.00;;;;5046056;28;20241;-73
2021/07/28 04:26:24;;;;;;;5.20;3.40;;;16.50;99.90;16.10;96628.00;;;;5045475;28;20601;-74
2021/07/28 04:29:13;;;;;;;6.57;4.13;;;16.50;99.90;16.30;96640.00;;;;5046305;28;20212;-73
2021/07/28 04:32:04;;;;;;;6.83;4.00;;;16.50;99.90;16.30;96632.00;;;;5043597;28;20582;-73
2021/07/28 04:34:53;;;;;;;6.23;3.20;;;16.60;99.90;16.30;96635.00;;;;5038840;28;20215;-73
2021/07/28 04:37:42;;;;;;;6.67;4.90;;;16.60;99.90;16.20;96636.00;;;;5032222;28;20224;-72
2021/07/28 04:40:31;;;;;;;5.83;3.67;;;16.60;99.90;16.40;96634.00;;;;5045638;28;20315;-73
2021/07/28 04:43:20;;;;;;;7.30;3.70;;;16.60;99.90;16.60;96633.00;;;;5045787;28;20197;-73
2021/07/28 04:46:08;;;;;;;6.30;3.40;;;16.70;99.90;16.50;96631.00;;;;5045398;28;20204;-73
2021/07/28 04:48:59;;;;;;;3.80;2.90;;;16.70;99.90;16.60;96633.00;;;;5045559;28;20197;-73
2021/07/28 04:51:48;;;;;;;4.57;3.77;;;16.80;99.90;16.70;96642.00;;;;5046349;28;20209;-73
2021/07/28 04:54:37;;;;;;;7.97;4.50;;;16.80;99.90;16.70;96646.00;;;;5045712;28;20400;-73
2021/07/28 04:57:26;;;;;;;4.23;3.50;;;16.90;99.90;16.60;96639.00;;;;5045689;28;20593;-73
2021/07/28 05:00:16;;;;;;;3.77;3.13;;;16.90;99.90;16.60;96641.00;;;;5045305;28;20594;-73
2021/07/28 05:03:05;;;;;;;6.80;3.63;;;16.90;99.90;16.70;96632.00;;;;5045196;28;20201;-73
2021/07/28 05:05:55;;;;;;;5.17;3.70;;;17.00;99.90;16.80;96629.00;;;;5045953;28;20699;-73
2021/07/28 05:08:44;;;;;;;5.70;3.57;;;17.00;99.90;16.80;96629.00;;;;5046506;28;20240;-74
2021/07/28 05:11:32;;;;;;;11.47;3.50;;;17.00;99.90;17.00;96629.00;;;;5043947;28;20552;-73
2021/07/28 05:14:21;;;;;;;6.00;3.53;;;16.10;99.90;17.20;96628.00;;;;5037852;28;20228;-73
2021/07/28 05:17:10;;;;;;;12.70;4.57;;;17.20;99.90;17.40;96630.00;;;;5044424;28;20607;-73
2021/07/28 05:19:59;;;;;;;3.80;3.20;;;17.40;99.90;17.50;96628.00;;;;5033931;28;20219;-74
2021/07/28 05:22:49;;;;;;;4.17;3.27;;;17.50;99.90;17.50;96637.00;;;;5031591;28;20230;-73
2021/07/28 05:25:38;;;;;;;4.10;3.10;;;17.60;99.90;17.70;96628.00;;;;5037111;28;20696;-73
2021/07/28 05:28:27;;;;;;;7.00;4.43;;;17.80;99.90;17.90;96631.00;;;;5034390;28;20711;-73
2021/07/28 05:31:16;;;;;;;8.87;4.03;;;17.90;99.90;18.20;96617.00;;;;5046036;28;20208;-73
2021/07/28 05:34:05;;;;;;;4.67;3.43;;;18.00;99.90;18.00;96626.00;;;;5045827;28;20250;-73
2021/07/28 05:36:57;;;;;;;6.77;4.13;;;18.20;99.90;18.40;96633.00;;;;5046548;28;20695;-73
2021/07/28 05:39:47;;;;;;;8.47;3.57;;;18.30;99.90;18.60;96638.00;;;;5038078;28;20209;-73
2021/07/28 05:42:36;;;;;;;8.33;4.03;;;18.50;99.90;18.60;96631.00;;;;5050219;28;20670;-73
2021/07/28 05:45:25;;;;;;;7.00;4.47;;;18.60;99.90;18.80;96631.00;;;;5048011;28;20667;-73
2021/07/28 05:48:14;;;;;;;4.37;3.90;;;18.70;99.90;18.70;96624.00;;;;5048997;28;20281;-73
2021/07/28 05:51:03;;;;;;;12.90;5.67;;;18.90;99.90;19.00;96615.00;;;;5046498;28;20211;-73
2021/07/28 05:53:51;;;;;;;7.10;4.40;;;19.00;99.90;19.10;96624.00;;;;5045179;28;20857;-73
2021/07/28 05:56:42;;;;;;;8.83;4.77;;;19.10;99.90;19.20;96616.00;;;;5030403;28;20205;-74
2021/07/28 05:59:30;;;;;;;8.23;4.73;;;19.20;99.90;19.30;96619.00;;;;5038695;28;20232;-73
2021/07/28 06:02:19;;;;;;;8.47;4.07;;;19.40;99.90;19.50;96621.00;;;;5049013;28;20233;-74
2021/07/28 06:05:09;;;;;;;6.80;4.63;;;19.50;99.90;19.50;96619.00;;;;5049640;28;20212;-74
2021/07/28 06:07:58;;;;;;;9.47;4.50;;;19.60;99.90;19.60;96620.00;;;;5049741;28;20232;-73
2021/07/28 06:10:47;;;;;;;7.63;4.73;;;19.70;99.90;19.80;96622.00;;;;5049341;28;20199;-74
2021/07/28 06:13:37;;;;;;;10.97;4.27;;;19.80;99.90;19.90;96620.00;;;;5047166;28;20204;-74
2021/07/28 06:16:26;;;;;;;12.37;6.20;;;19.90;99.90;20.10;96622.00;;;;5051228;28;20201;-76
2021/07/28 06:19:15;;;;;;;9.97;4.73;;;20.00;99.90;20.30;96617.00;;;;5054541;28;20205;-75
2021/07/28 06:22:04;;;;;;;9.50;5.27;;;20.20;99.90;20.60;96627.00;;;;5048831;28;20233;-72
2021/07/28 06:24:54;;;;;;;8.60;4.33;;;20.40;99.90;20.80;96622.00;;;;5040409;28;20214;-72
2021/07/28 06:27:45;;;;;;;10.00;5.37;;;20.60;99.90;20.90;96620.00;;;;5042383;28;20224;-72
2021/07/28 06:30:36;;;;;;;6.20;4.43;;;20.70;99.90;21.30;96623.00;;;;5047833;28;20200;-73
2021/07/28 06:33:25;;;;;;;11.93;4.57;;;20.90;99.90;21.50;96615.00;;;;5047964;28;20582;-73
2021/07/28 06:36:14;;;;;;;10.33;4.30;;;21.20;99.90;21.70;96613.00;;;;5047664;28;20208;-73
2021/07/28 06:39:03;;;;;;;7.80;4.23;;;21.40;99.90;21.90;96609.00;;;;5048184;28;20201;-74
2021/07/28 06:41:52;;;;;;;9.50;4.53;;;21.60;99.90;22.10;96607.00;;;;5047972;28;20319;-73
2021/07/28 06:44:41;;;;;;;10.70;4.20;;;21.80;99.90;22.30;96607.00;;;;5038253;28;20204;-73
2021/07/28 06:47:33;;;;;;;11.50;5.73;;;22.00;99.90;22.40;96603.00;;;;5048346;28;20231;-73
2021/07/28 06:50:21;;;;;;;7.90;4.07;;;22.20;99.90;22.60;96593.00;;;;5048598;28;20212;-73
2021/07/28 06:53:10;;;;;;;11.03;4.90;;;22.30;99.90;22.80;96596.00;;;;5047020;28;20193;-73
2021/07/28 06:55:59;;;;;;;13.97;4.23;;;22.50;99.90;22.80;96596.00;;;;5045717;28;20212;-73
2021/07/28 06:58:48;;;;;;;11.17;4.33;;;22.70;99.90;23.00;96595.00;;;;5047728;28;20224;-73
2021/07/28 07:01:36;;;;;;;9.13;4.17;;;22.80;99.90;23.10;96592.00;;;;5047641;28;20216;-73
2021/07/28 07:04:27;;;;;;;10.47;4.60;;;22.90;99.90;23.30;96593.00;;;;5048213;28;20223;-73
2021/07/28 07:07:15;;;;;;;9.57;4.57;;;23.10;99.90;23.50;96589.00;;;;5045842;28;20220;-73
2021/07/28 07:10:08;;;;;;;6.60;4.67;;;23.20;99.90;23.70;96589.00;;;;5041861;28;20205;-73
2021/07/28 07:12:57;;;;;;;8.40;4.03;;;23.40;99.90;23.80;96587.00;;;;5040929;28;20197;-70
2021/07/28 07:15:46;;;;;;;6.23;4.43;;;23.60;99.90;24.00;96578.00;;;;5043716;28;20192;-72
2021/07/28 07:18:34;;;;;;;5.87;3.63;;;23.70;99.90;24.20;96580.00;;;;5047434;28;20230;-72
2021/07/28 07:21:24;;;;;;;7.63;3.67;;;23.90;99.90;24.40;96580.00;;;;5048732;28;20232;-72
2021/07/28 07:24:14;;;;;;;15.10;4.13;;;24.10;99.90;24.50;96584.00;;;;5046715;28;20579;-71
2021/07/28 07:27:03;;;;;;;15.43;4.60;;;24.30;99.90;24.80;96577.00;;;;5042754;28;20717;-72
2021/07/28 07:29:54;;;;;;;7.03;3.90;;;24.40;99.90;24.90;96571.00;;;;5046541;28;20216;-72
2021/07/28 07:32:43;;;;;;;6.90;3.97;;;24.60;99.90;25.10;96578.00;;;;5046721;28;20204;-72
2021/07/28 07:35:32;;;;;;;6.53;3.70;;;24.70;99.90;25.30;96576.00;;;;5046837;28;20610;-72
2021/07/28 07:38:22;;;;;;;7.53;4.23;;;24.90;99.90;25.50;96577.00;;;;5043042;28;20221;-72
2021/07/28 07:41:11;;;;;;;9.13;4.67;;;25.10;99.90;25.80;96566.00;;;;5047560;28;20198;-72
2021/07/28 07:44:00;;;;;;;6.13;3.70;;;25.30;99.90;25.90;96570.00;;;;5047480;28;20572;-72
2021/07/28 07:46:49;;;;;;;7.93;3.97;;;25.50;99.90;25.80;96582.00;;;;5045336;28;20215;-72
2021/07/28 07:49:37;;;;;;;7.03;3.50;;;25.60;99.90;26.00;96563.00;;;;5047392;28;20211;-72
2021/07/28 07:52:26;;;;;;;10.73;3.47;;;25.70;99.90;26.40;96564.00;;;;5046665;28;20211;-72
2021/07/28 07:55:17;;;;;;;12.73;4.67;;;25.90;99.90;26.50;96569.00;;;;5044018;28;20210;-71
2021/07/28 07:58:06;;;;;;;8.70;4.20;;;26.10;99.90;26.50;96578.00;;;;5045006;28;20639;-73
2021/07/28 08:00:54;;;;;;;6.53;3.47;;;26.20;99.90;26.60;96571.00;;;;5031709;28;20222;-73
2021/07/28 08:03:44;;;;;;;9.27;3.83;;;26.40;99.90;26.80;96567.00;;;;5041719;28;20266;-73
2021/07/28 08:06:33;;;;;;;7.00;3.53;;;26.50;99.90;27.00;96569.00;;;;5042477;28;20220;-71
2021/07/28 08:09:22;;;;;;;6.70;4.13;;;26.60;99.90;27.10;96569.00;;;;5033424;28;20211;-72
2021/07/28 08:12:12;;;;;;;8.43;3.40;;;26.80;99.90;27.10;96561.00;;;;5041471;28;20215;-72
2021/07/28 08:15:01;;;;;;;7.47;3.73;;;26.90;99.90;27.30;96558.00;;;;5043106;28;20203;-72
2021/07/28 08:17:50;;;;;;;8.13;3.20;;;27.00;99.40;27.60;96558.00;;;;5044729;28;20233;-73
2021/07/28 08:20:39;;;;;;;7.43;3.83;;;27.10;98.50;27.70;96563.00;;;;5045841;28;20712;-73
2021/07/28 08:23:28;;;;;;;6.57;4.60;;;27.30;97.70;27.90;96557.00;;;;5033015;28;20226;-72
2021/07/28 08:26:17;;;;;;;8.90;4.07;;;27.50;96.80;28.00;96554.00;;;;5041505;28;20207;-73
2021/07/28 08:29:07;;;;;;;8.23;3.67;;;27.60;95.10;28.10;96548.00;;;;5045406;28;20205;-70
2021/07/28 08:31:56;;;;;;;13.80;4.73;;;27.80;92.80;28.10;96544.00;;;;5038896;28;20212;-72
2021/07/28 08:34:45;;;;;;;7.07;3.63;;;27.80;92.90;28.40;96543.00;;;;5043616;28;20735;-72
2021/07/28 08:37:37;;;;;;;5.50;3.60;;;28.00;91.80;28.60;96549.00;;;;5042003;28;20237;-73
2021/07/28 08:40:26;;;;;;;9.67;3.73;;;28.10;91.50;28.60;96537.00;;;;5032303;28;20193;-72
2021/07/28 08:43:15;;;;;;;7.80;4.43;;;28.30;90.50;28.50;96540.00;;;;5043222;28;20639;-72
2021/07/28 08:46:07;;;;;;;6.83;4.20;;;28.40;89.30;28.80;96533.00;;;;5043439;28;20300;-72
2021/07/28 08:48:56;;;;;;;6.00;3.37;;;28.50;88.00;29.00;96527.00;;;;5038136;28;20240;-72
2021/07/28 08:51:45;;;;;;;9.30;3.77;;;28.60;86.70;28.80;96540.00;;;;5044869;28;20229;-73
2021/07/28 08:54:34;;;;;;;5.90;3.90;;;28.70;85.50;28.90;96540.00;;;;5036157;28;20216;-72
2021/07/28 08:57:24;;;;;;;8.67;4.53;;;28.80;82.30;29.10;96529.00;;;;5045891;28;20250;-72
2021/07/28 09:00:13;;;;;;;7.47;4.37;;;28.90;84.20;29.50;96536.00;;;;5046634;28;22020;-73
2021/07/28 09:03:04;;;;;;;6.73;3.80;;;29.10;82.40;29.70;96530.00;;;;5045932;28;20233;-73
2021/07/28 09:05:56;;;;;;;10.90;4.60;;;29.20;81.50;29.40;96533.00;;;;5044868;28;20192;-73
2021/07/28 09:08:44;;;;;;;6.67;3.63;;;29.30;78.60;29.90;96536.00;;;;5044839;28;20226;-73
2021/07/28 09:11:33;;;;;;;6.73;3.87;;;29.40;78.80;30.10;96521.00;;;;5045296;28;20199;-72
2021/07/28 09:14:25;;;;;;;7.20;4.10;;;29.60;78.40;30.20;96515.00;;;;5037810;28;20219;-72
2021/07/28 09:17:18;;;;;;;6.50;4.03;;;29.80;74.50;29.40;96518.00;;;;5047774;28;20603;-72
2021/07/28 09:20:09;;;;;;;11.52;3.80;;;29.80;73.80;29.60;96508.00;;;;5048025;28;20215;-72
2021/07/28 09:23:13;;;;;;;4.88;4.03;;;29.80;72.90;30.20;96504.00;;;;5047307;28;20280;-71
2021/07/28 09:26:05;;;;;;;6.88;3.85;;;29.90;72.40;30.50;96504.00;;;;5048048;28;20212;-72
2021/07/28 09:29:05;;;;;;;8.57;4.00;;;30.00;73.60;30.80;96498.00;;;;5038300;28;20685;-73
2021/07/28 09:31:56;;;;;;;11.32;4.70;;;30.20;70.50;31.00;96503.00;;;;5035742;28;20207;-73
2021/07/28 09:34:44;;;;;;;8.20;3.90;;;30.40;71.80;31.30;96497.00;;;;5048356;28;20234;-73
2021/07/28 09:37:40;;;;;;;6.10;5.18;;;30.70;71.60;30.60;96485.00;;;;5047070;28;20285;-73
2021/07/28 09:40:29;;;;;;;13.05;4.22;;;30.80;68.30;31.10;96478.00;;;;5048418;28;20238;-72
2021/07/28 09:43:18;;;;;;;9.73;5.00;;;30.80;66.80;31.40;96476.00;;;;5047430;28;20230;-72
2021/07/28 09:46:23;;;;;;;7.97;4.13;;;31.00;67.30;31.80;96475.00;;;;5047159;28;20212;-72
2021/07/28 09:49:20;;;;;;;6.72;4.32;;;31.20;67.50;32.10;96464.00;;;;5047472;28;20218;-73
2021/07/28 09:52:25;;;;;;;6.93;3.45;;;31.50;67.60;32.40;96456.00;;;;5047375;28;20251;-72
2021/07/28 09:55:27;;;;;;;8.30;4.15;;;31.70;66.80;32.60;96447.00;;;;5039614;28;20209;-73
2021/07/28 09:58:18;;;;;;;5.30;3.65;;;32.00;65.40;32.70;96449.00;;;;5043755;28;20234;-72
2021/07/28 10:01:07;;;;;;;4.40;3.25;;;32.10;63.10;32.70;96450.00;;;;5026772;28;20626;-72
2021/07/28 10:03:59;;;;;;;7.93;4.43;;;32.30;61.20;32.10;96446.00;;;;5047977;28;20859;-72
2021/07/28 10:06:51;;;;;;;5.40;2.95;;;32.40;59.20;30.80;96448.00;;;;5047161;28;20716;-71
2021/07/28 10:09:46;;;;;;;6.97;3.83;;;31.80;57.20;31.20;96442.00;;;;5048115;28;20222;-73
2021/07/28 10:12:38;;;;;;;6.65;3.40;;;31.50;58.60;31.90;96446.00;;;;5036916;28;20234;-73
2021/07/28 10:15:28;;;;;;;4.80;3.60;;;31.60;58.90;32.50;96441.00;;;;5036162;28;20206;-74
2021/07/28 10:18:18;;;;;;;6.63;3.88;;;31.80;59.60;32.20;96430.00;;;;5047437;28;20268;-74
2021/07/28 10:21:15;;;;;;;6.60;3.00;;;31.90;58.50;32.00;96424.00;;;;5046723;28;20199;-72
2021/07/28 10:24:06;;;;;;;6.90;3.42;;;31.80;56.20;32.60;96427.00;;;;5046514;28;20222;-72
2021/07/28 10:26:59;;;;;;;7.93;3.88;;;31.90;57.70;30.80;96420.00;;;;5047345;28;20230;-73
2021/07/28 10:29:52;;;;;;;5.95;2.95;;;31.50;56.10;31.30;96420.00;;;;5033803;28;20581;-75
2021/07/28 10:32:41;;;;;;;9.40;3.88;;;31.30;56.80;32.50;96421.00;;;;5046999;28;20209;-75
2021/07/28 10:35:30;;;;;;;12.73;3.60;;;31.60;58.10;33.20;96422.00;;;;5047521;28;20221;-75
2021/07/28 10:38:22;;;;;;;6.65;3.53;;;32.00;58.10;31.20;96406.00;;;;5047708;28;20229;-74
2021/07/28 10:41:10;;;;;;;5.70;3.38;;;31.80;54.30;31.70;96408.00;;;;5047480;28;20210;-73
2021/07/28 10:44:10;;;;;;;5.05;3.50;;;31.80;55.80;32.00;96403.00;;;;5047130;28;20216;-75
2021/07/28 10:47:41;;;;;;;7.82;3.65;;;31.90;55.50;32.10;96397.00;;;;5046361;28;20252;-74
2021/07/28 10:50:45;;;;;;;9.75;4.40;;;32.00;54.90;31.40;96397.00;;;;5047123;28;20222;-73
2021/07/28 10:53:49;;;;;;;11.18;3.65;;;31.70;53.90;31.10;96390.00;;;;5046154;28;20218;-73
2021/07/28 10:57:08;;;;;;;10.10;4.30;;;31.60;54.40;32.00;96436.00;;;;5048784;28;20211;-75
2021/07/28 10:59:57;;;;;;;5.93;3.60;;;31.70;55.10;32.30;96389.00;;;;5045096;28;20213;-74
2021/07/28 11:03:14;;;;;;;6.07;3.53;;;31.80;55.40;32.20;96387.00;;;;5044112;28;20203;-75
2021/07/28 11:06:30;;;;;;;5.47;3.28;;;32.00;54.70;30.90;96374.00;;;;5041309;28;20695;-67
2021/07/28 11:09:19;;;;;;;7.43;3.22;;;31.80;53.70;32.40;96388.00;;;;5037278;28;20691;-75
2021/07/28 11:12:11;;;;;;;7.50;3.63;;;31.90;54.80;33.30;96379.00;;;;5042560;28;20258;-76
2021/07/28 11:15:01;;;;;;;6.95;2.97;;;32.20;55.40;32.30;96370.00;;;;5033810;28;20212;-73
2021/07/28 11:17:53;;;;;;;5.30;3.38;;;32.60;53.80;32.30;96379.00;;;;5034385;28;20231;-75
2021/07/28 11:20:43;;;;;;;8.38;4.40;;;32.50;53.90;32.50;96372.00;;;;5036444;28;20217;-72
2021/07/28 11:23:48;;;;;;;9.93;3.67;;;32.40;53.90;32.40;96376.00;;;;5039514;28;20609;-74
2021/07/28 11:26:41;;;;;;;5.88;4.18;;;32.50;53.50;34.20;96376.00;;;;5047988;28;20206;-76
2021/07/28 11:29:32;;;;;;;11.63;4.47;;;32.80;55.90;33.10;96381.00;;;;5046628;28;20210;-76
2021/07/28 11:32:24;;;;;;;6.15;4.15;;;33.00;53.40;34.20;96365.00;;;;5050236;28;20691;-77
2021/07/28 11:35:13;;;;;;;6.25;3.55;;;33.40;54.70;35.00;96366.00;;;;5049844;28;20204;-78
2021/07/28 11:38:19;;;;;;;4.85;3.20;;;33.80;53.80;34.00;96345.00;;;;5030829;28;20221;-76
2021/07/28 11:41:10;;;;;;;10.80;5.22;;;34.00;53.40;33.10;96361.00;;;;5033509;28;20212;-77
2021/07/28 11:43:59;;;;;;;9.18;3.85;;;33.40;52.60;34.60;96351.00;;;;5047457;28;20238;-76
2021/07/28 11:46:53;;;;;;;9.70;4.22;;;33.70;53.80;35.40;96348.00;;;;5045365;28;20216;-74
2021/07/28 11:49:41;;;;;;;6.55;4.10;;;34.20;53.70;34.60;96355.00;;;;5047403;28;20591;-76
2021/07/28 11:52:31;;;;;;;8.00;3.53;;;34.40;52.10;33.80;96330.00;;;;5046383;28;20215;-75
2021/07/28 11:55:26;;;;;;;9.35;4.32;;;34.50;51.50;32.20;96316.00;;;;5046443;28;20212;-76
2021/07/28 11:58:15;;;;;;;10.48;4.78;;;33.40;51.50;33.10;96338.00;;;;5048087;28;20224;-78
2021/07/28 12:01:21;;;;;;;5.25;3.42;;;33.00;51.70;34.10;96334.00;;;;5051305;28;20207;-79
2021/07/28 12:04:18;;;;;;;5.05;3.63;;;33.60;51.90;34.30;96344.00;;;;5042029;28;20223;-79
2021/07/28 12:07:12;;;;;;;5.88;3.42;;;33.60;52.30;32.60;96305.00;;;;5047239;28;20246;-74
2021/07/28 12:10:04;;;;;;;7.78;3.95;;;33.40;50.40;32.80;96342.00;;;;5046423;28;20732;-77
2021/07/28 12:12:54;;;;;;;6.53;3.58;;;33.10;51.10;32.60;96329.00;;;;5043044;28;20198;-75
2021/07/28 12:16:03;;;;;;;7.40;4.32;;;33.00;51.20;34.60;96323.00;;;;5037172;28;20204;-76
2021/07/28 12:18:52;;;;;;;6.32;3.90;;;33.30;51.80;33.50;96327.00;;;;5057067;28;20219;-80
2021/07/28 12:21:57;;;;;;;5.20;3.15;;;33.60;50.90;32.60;96279.00;;;;5050192;28;20214;-76
2021/07/28 12:24:49;;;;;;;7.97;3.92;;;33.30;50.50;32.80;96340.00;;;;5047752;28;20238;-81
2021/07/28 12:27:56;;;;;;;10.60;3.90;;;33.10;50.70;33.00;96316.00;;;;5048226;28;20230;-75
2021/07/28 12:30:45;;;;;;;10.00;3.90;;;33.00;50.90;33.10;96328.00;;;;5049118;28;20205;-75
2021/07/28 12:33:34;;;;;;;9.32;3.70;;;33.10;50.50;34.80;96332.00;;;;5049630;28;20211;-75
2021/07/28 12:36:28;;;;;;;3.80;3.20;;;33.60;51.60;33.80;96340.00;;;;5046106;28;20231;-77
2021/07/28 12:39:16;;;;;;;6.90;3.65;;;33.60;49.50;33.20;96304.00;;;;5045354;28;20211;-75
2021/07/28 12:42:05;;;;;;;4.63;3.05;;;33.40;50.50;32.80;96316.00;;;;5035848;28;20470;-72